Portada
METAR-TAF:

METAR-TAF

Aeroports :

Porto Alegre, Rio Grande do Sul, Brasil

latitud: 30-01S, longitud: 051-13W, altitud: 47 m

Observació

L'informe es va fer fa 27 minuts, a les 11:00 UTC
Vent 6 kt del Oest/Nord-Oest
Temperatura 18°C
Humitat 83%
Pressió 1016 hPa
Visibilitat 10 km o més
sense núvols per sota de 1500 mi sense presència de cumulonimbus.

METAR: SBCO 271100Z 30006KT CAVOK 18/15 Q1016

Hora: 08:27 (11:27 UTC)

Pronòstic

L'informe es va fer fa 9 hores i 27 minuts, a les 02:00 UTC
Pronòstic vàlid del 27 a les 06 UTC al 27 a les 18 UTC
Vent 5 kt del Est/Sud-Est
Visibilitat 10 km o més
sense núvols per sota de 1500 mi sense presència de cumulonimbus.

TAF: SBCO 270200Z 2706/2718 11005KT CAVOK TN15/2708Z TX28/2718Z RMK PDW

Observacions i pronòstics meteorològics de més de 4000 aeroports (METAR i TAF).

Les estacions disponibles són els punts grocs i vermells al mapa.

Posi el ratolí al punt desitjat per veure el nom de l'estació.

Feu clic per veure les observacions i els pronòstics meteorològics.

Per canviar el mapa: feu clic els botons verds amb una creu de color negre per apropar; al botó verd amb un guió per allunyar la imatge; o en les fletxes verdes per a mapes adjacents.


METAR-TAF: